sensor_id;sensor_type;location;lat;lon;timestamp;P1;durP1;ratioP1;P2;durP2;ratioP2
60169;SDS011;46042;49.444;6.862;2022-12-11T00:01:29;16.03;;;8.47;;
60169;SDS011;46042;49.444;6.862;2022-12-11T00:03:56;19.87;;;10.57;;
60169;SDS011;46042;49.444;6.862;2022-12-11T00:06:22;11.53;;;7.10;;
60169;SDS011;46042;49.444;6.862;2022-12-11T00:08:53;25.20;;;10.30;;
60169;SDS011;46042;49.444;6.862;2022-12-11T00:11:20;14.95;;;8.77;;
60169;SDS011;46042;49.444;6.862;2022-12-11T00:13:48;16.30;;;9.57;;
60169;SDS011;46042;49.444;6.862;2022-12-11T00:16:15;22.80;;;9.43;;
60169;SDS011;46042;49.444;6.862;2022-12-11T00:18:41;21.23;;;8.97;;
60169;SDS011;46042;49.444;6.862;2022-12-11T00:21:11;15.67;;;9.07;;
60169;SDS011;46042;49.444;6.862;2022-12-11T00:23:39;16.33;;;9.43;;
60169;SDS011;46042;49.444;6.862;2022-12-11T00:26:08;18.27;;;9.27;;
60169;SDS011;46042;49.444;6.862;2022-12-11T00:28:38;14.70;;;9.20;;
60169;SDS011;46042;49.444;6.862;2022-12-11T00:31:05;14.37;;;8.27;;
60169;SDS011;46042;49.444;6.862;2022-12-11T00:33:34;18.43;;;9.40;;
60169;SDS011;46042;49.444;6.862;2022-12-11T00:36:00;22.80;;;10.80;;
60169;SDS011;46042;49.444;6.862;2022-12-11T00:38:27;25.83;;;10.17;;
60169;SDS011;46042;49.444;6.862;2022-12-11T00:40:57;22.87;;;10.20;;
60169;SDS011;46042;49.444;6.862;2022-12-11T00:45:51;14.70;;;7.67;;
60169;SDS011;46042;49.444;6.862;2022-12-11T00:48:18;15.97;;;7.53;;
60169;SDS011;46042;49.444;6.862;2022-12-11T00:50:45;16.20;;;9.23;;
60169;SDS011;46042;49.444;6.862;2022-12-11T00:53:12;19.87;;;9.77;;
60169;SDS011;46042;49.444;6.862;2022-12-11T00:55:39;12.77;;;8.03;;
60169;SDS011;46042;49.444;6.862;2022-12-11T00:58:08;18.43;;;8.53;;
60169;SDS011;46042;49.444;6.862;2022-12-11T01:00:35;17.83;;;9.50;;
60169;SDS011;46042;49.444;6.862;2022-12-11T01:03:02;15.67;;;7.80;;
60169;SDS011;46042;49.444;6.862;2022-12-11T01:05:30;21.43;;;10.20;;
60169;SDS011;46042;49.444;6.862;2022-12-11T01:07:57;19.67;;;9.00;;
60169;SDS011;46042;49.444;6.862;2022-12-11T01:10:24;18.23;;;9.60;;
60169;SDS011;46042;49.444;6.862;2022-12-11T01:12:55;15.23;;;8.40;;
60169;SDS011;46042;49.444;6.862;2022-12-11T01:15:25;16.70;;;8.57;;
60169;SDS011;46042;49.444;6.862;2022-12-11T01:17:54;13.67;;;8.07;;
60169;SDS011;46042;49.444;6.862;2022-12-11T01:20:21;18.77;;;8.87;;
60169;SDS011;46042;49.444;6.862;2022-12-11T01:22:51;16.33;;;8.73;;
60169;SDS011;46042;49.444;6.862;2022-12-11T01:25:19;21.15;;;9.77;;
60169;SDS011;46042;49.444;6.862;2022-12-11T01:27:46;19.67;;;9.33;;
60169;SDS011;46042;49.444;6.862;2022-12-11T01:30:16;14.02;;;7.78;;
60169;SDS011;46042;49.444;6.862;2022-12-11T01:32:43;15.87;;;8.13;;
60169;SDS011;46042;49.444;6.862;2022-12-11T01:35:10;17.73;;;8.90;;
60169;SDS011;46042;49.444;6.862;2022-12-11T01:37:38;20.97;;;9.80;;
60169;SDS011;46042;49.444;6.862;2022-12-11T01:40:05;19.10;;;8.77;;
60169;SDS011;46042;49.444;6.862;2022-12-11T01:42:34;19.50;;;8.50;;
60169;SDS011;46042;49.444;6.862;2022-12-11T01:48:05;21.33;;;8.77;;
60169;SDS011;46042;49.444;6.862;2022-12-11T01:50:39;17.37;;;8.03;;
60169;SDS011;46042;49.444;6.862;2022-12-11T01:53:09;16.33;;;8.60;;
60169;SDS011;46042;49.444;6.862;2022-12-11T01:55:39;19.97;;;9.63;;
60169;SDS011;46042;49.444;6.862;2022-12-11T01:58:06;23.47;;;11.20;;
60169;SDS011;46042;49.444;6.862;2022-12-11T02:00:33;18.27;;;9.80;;
60169;SDS011;46042;49.444;6.862;2022-12-11T02:03:00;16.20;;;8.53;;
60169;SDS011;46042;49.444;6.862;2022-12-11T02:05:27;21.20;;;9.03;;
60169;SDS011;46042;49.444;6.862;2022-12-11T02:07:55;15.13;;;8.70;;
60169;SDS011;46042;49.444;6.862;2022-12-11T02:10:27;18.33;;;8.98;;
60169;SDS011;46042;49.444;6.862;2022-12-11T02:13:14;21.00;;;8.93;;
60169;SDS011;46042;49.444;6.862;2022-12-11T02:15:53;18.37;;;9.17;;
60169;SDS011;46042;49.444;6.862;2022-12-11T02:18:30;18.67;;;8.40;;
60169;SDS011;46042;49.444;6.862;2022-12-11T02:21:21;19.77;;;10.17;;
60169;SDS011;46042;49.444;6.862;2022-12-11T02:29:06;21.47;;;11.27;;
60169;SDS011;46042;49.444;6.862;2022-12-11T02:31:38;22.60;;;10.47;;
60169;SDS011;46042;49.444;6.862;2022-12-11T02:34:21;19.70;;;9.80;;
60169;SDS011;46042;49.444;6.862;2022-12-11T02:37:01;18.87;;;9.93;;
60169;SDS011;46042;49.444;6.862;2022-12-11T02:39:31;16.75;;;10.35;;
60169;SDS011;46042;49.444;6.862;2022-12-11T02:42:01;19.10;;;10.00;;
60169;SDS011;46042;49.444;6.862;2022-12-11T02:44:29;18.67;;;8.90;;
60169;SDS011;46042;49.444;6.862;2022-12-11T02:46:59;22.80;;;9.67;;
60169;SDS011;46042;49.444;6.862;2022-12-11T02:49:27;16.70;;;8.97;;
60169;SDS011;46042;49.444;6.862;2022-12-11T02:51:55;25.27;;;10.27;;
60169;SDS011;46042;49.444;6.862;2022-12-11T02:54:25;20.93;;;10.30;;
60169;SDS011;46042;49.444;6.862;2022-12-11T02:56:56;26.33;;;10.47;;
60169;SDS011;46042;49.444;6.862;2022-12-11T02:59:33;21.97;;;11.23;;
60169;SDS011;46042;49.444;6.862;2022-12-11T03:02:03;20.87;;;9.60;;
60169;SDS011;46042;49.444;6.862;2022-12-11T03:04:30;25.73;;;10.47;;
60169;SDS011;46042;49.444;6.862;2022-12-11T03:07:11;24.80;;;11.17;;
60169;SDS011;46042;49.444;6.862;2022-12-11T03:09:43;19.77;;;9.77;;
60169;SDS011;46042;49.444;6.862;2022-12-11T03:12:13;30.27;;;11.40;;
60169;SDS011;46042;49.444;6.862;2022-12-11T03:14:43;23.73;;;11.03;;
60169;SDS011;46042;49.444;6.862;2022-12-11T03:17:12;19.20;;;10.90;;
60169;SDS011;46042;49.444;6.862;2022-12-11T03:19:47;24.33;;;11.60;;
60169;SDS011;46042;49.444;6.862;2022-12-11T03:30:32;31.13;;;10.83;;
60169;SDS011;46042;49.444;6.862;2022-12-11T03:33:05;24.65;;;9.85;;
60169;SDS011;46042;49.444;6.862;2022-12-11T03:35:41;22.67;;;9.33;;
60169;SDS011;46042;49.444;6.862;2022-12-11T03:38:11;19.73;;;9.50;;
60169;SDS011;46042;49.444;6.862;2022-12-11T03:40:44;19.23;;;9.33;;
60169;SDS011;46042;49.444;6.862;2022-12-11T03:43:15;21.08;;;10.18;;
60169;SDS011;46042;49.444;6.862;2022-12-11T03:45:42;21.67;;;9.27;;
60169;SDS011;46042;49.444;6.862;2022-12-11T03:48:12;23.47;;;10.30;;
60169;SDS011;46042;49.444;6.862;2022-12-11T03:50:41;22.33;;;10.03;;
60169;SDS011;46042;49.444;6.862;2022-12-11T03:53:09;19.90;;;9.80;;
60169;SDS011;46042;49.444;6.862;2022-12-11T03:55:36;27.10;;;9.53;;
60169;SDS011;46042;49.444;6.862;2022-12-11T03:58:04;20.00;;;9.27;;
60169;SDS011;46042;49.444;6.862;2022-12-11T04:00:31;22.20;;;9.43;;
60169;SDS011;46042;49.444;6.862;2022-12-11T04:02:58;24.20;;;9.50;;
60169;SDS011;46042;49.444;6.862;2022-12-11T04:05:41;26.53;;;9.67;;
60169;SDS011;46042;49.444;6.862;2022-12-11T04:08:16;25.97;;;8.40;;
60169;SDS011;46042;49.444;6.862;2022-12-11T04:10:46;23.55;;;9.65;;
60169;SDS011;46042;49.444;6.862;2022-12-11T04:13:13;31.87;;;11.87;;
60169;SDS011;46042;49.444;6.862;2022-12-11T04:15:39;19.70;;;9.83;;
60169;SDS011;46042;49.444;6.862;2022-12-11T04:18:06;22.03;;;8.47;;
60169;SDS011;46042;49.444;6.862;2022-12-11T04:20:52;20.37;;;9.17;;
60169;SDS011;46042;49.444;6.862;2022-12-11T04:23:38;23.03;;;7.83;;
60169;SDS011;46042;49.444;6.862;2022-12-11T04:26:23;26.00;;;9.17;;
60169;SDS011;46042;49.444;6.862;2022-12-11T04:28:50;17.47;;;8.67;;
60169;SDS011;46042;49.444;6.862;2022-12-11T04:31:18;19.70;;;7.97;;
60169;SDS011;46042;49.444;6.862;2022-12-11T04:33:46;17.97;;;8.67;;
60169;SDS011;46042;49.444;6.862;2022-12-11T04:36:13;18.43;;;8.57;;
60169;SDS011;46042;49.444;6.862;2022-12-11T04:38:41;23.13;;;8.60;;
60169;SDS011;46042;49.444;6.862;2022-12-11T04:41:09;18.17;;;9.23;;
60169;SDS011;46042;49.444;6.862;2022-12-11T04:43:38;16.77;;;9.57;;
60169;SDS011;46042;49.444;6.862;2022-12-11T04:46:06;19.37;;;8.63;;
60169;SDS011;46042;49.444;6.862;2022-12-11T04:48:35;15.43;;;8.20;;
60169;SDS011;46042;49.444;6.862;2022-12-11T04:51:03;20.67;;;9.73;;
60169;SDS011;46042;49.444;6.862;2022-12-11T04:53:30;14.00;;;8.63;;
60169;SDS011;46042;49.444;6.862;2022-12-11T04:55:57;21.53;;;9.60;;
60169;SDS011;46042;49.444;6.862;2022-12-11T04:58:24;19.23;;;8.67;;
60169;SDS011;46042;49.444;6.862;2022-12-11T05:00:51;18.20;;;8.37;;
60169;SDS011;46042;49.444;6.862;2022-12-11T05:03:19;17.83;;;9.07;;
60169;SDS011;46042;49.444;6.862;2022-12-11T05:05:46;18.47;;;9.17;;
60169;SDS011;46042;49.444;6.862;2022-12-11T05:08:14;18.27;;;7.43;;
60169;SDS011;46042;49.444;6.862;2022-12-11T05:10:41;17.40;;;8.00;;
60169;SDS011;46042;49.444;6.862;2022-12-11T05:13:15;16.47;;;7.27;;
60169;SDS011;46042;49.444;6.862;2022-12-11T05:15:41;14.93;;;8.27;;
60169;SDS011;46042;49.444;6.862;2022-12-11T05:18:08;15.87;;;7.87;;
60169;SDS011;46042;49.444;6.862;2022-12-11T05:20:34;14.67;;;7.07;;
60169;SDS011;46042;49.444;6.862;2022-12-11T05:23:01;13.30;;;6.57;;
60169;SDS011;46042;49.444;6.862;2022-12-11T05:25:28;13.40;;;6.53;;
60169;SDS011;46042;49.444;6.862;2022-12-11T05:27:54;13.93;;;6.83;;
60169;SDS011;46042;49.444;6.862;2022-12-11T05:30:21;14.37;;;6.70;;
60169;SDS011;46042;49.444;6.862;2022-12-11T05:32:48;13.53;;;7.07;;
60169;SDS011;46042;49.444;6.862;2022-12-11T05:35:14;12.70;;;7.10;;
60169;SDS011;46042;49.444;6.862;2022-12-11T05:37:41;14.33;;;7.47;;
60169;SDS011;46042;49.444;6.862;2022-12-11T05:40:08;12.27;;;6.27;;
60169;SDS011;46042;49.444;6.862;2022-12-11T05:42:35;15.00;;;7.50;;
60169;SDS011;46042;49.444;6.862;2022-12-11T05:45:01;19.07;;;7.70;;
60169;SDS011;46042;49.444;6.862;2022-12-11T05:47:29;18.30;;;6.47;;
60169;SDS011;46042;49.444;6.862;2022-12-11T05:49:56;14.13;;;7.67;;
60169;SDS011;46042;49.444;6.862;2022-12-11T05:52:23;15.90;;;7.13;;
60169;SDS011;46042;49.444;6.862;2022-12-11T05:54:49;15.17;;;8.20;;
60169;SDS011;46042;49.444;6.862;2022-12-11T05:57:16;14.80;;;8.33;;
60169;SDS011;46042;49.444;6.862;2022-12-11T05:59:42;15.87;;;8.00;;
60169;SDS011;46042;49.444;6.862;2022-12-11T06:02:10;16.40;;;7.77;;
60169;SDS011;46042;49.444;6.862;2022-12-11T06:04:37;16.00;;;7.73;;
60169;SDS011;46042;49.444;6.862;2022-12-11T06:07:03;18.30;;;7.20;;
60169;SDS011;46042;49.444;6.862;2022-12-11T06:09:30;19.20;;;8.60;;
60169;SDS011;46042;49.444;6.862;2022-12-11T06:11:56;16.53;;;6.07;;
60169;SDS011;46042;49.444;6.862;2022-12-11T06:14:23;18.57;;;6.97;;
60169;SDS011;46042;49.444;6.862;2022-12-11T06:16:49;17.20;;;8.60;;
60169;SDS011;46042;49.444;6.862;2022-12-11T06:19:16;19.33;;;8.03;;
60169;SDS011;46042;49.444;6.862;2022-12-11T06:21:44;23.80;;;7.40;;
60169;SDS011;46042;49.444;6.862;2022-12-11T06:24:11;20.37;;;9.47;;
60169;SDS011;46042;49.444;6.862;2022-12-11T06:26:38;14.23;;;6.37;;
60169;SDS011;46042;49.444;6.862;2022-12-11T06:29:04;17.67;;;8.13;;
60169;SDS011;46042;49.444;6.862;2022-12-11T06:31:38;14.90;;;6.60;;
60169;SDS011;46042;49.444;6.862;2022-12-11T06:34:04;17.77;;;7.33;;
60169;SDS011;46042;49.444;6.862;2022-12-11T06:36:31;12.53;;;4.77;;
60169;SDS011;46042;49.444;6.862;2022-12-11T06:38:58;14.20;;;5.47;;
60169;SDS011;46042;49.444;6.862;2022-12-11T06:41:24;11.83;;;6.03;;
60169;SDS011;46042;49.444;6.862;2022-12-11T06:43:51;9.50;;;4.70;;
60169;SDS011;46042;49.444;6.862;2022-12-11T06:46:18;14.07;;;5.67;;
60169;SDS011;46042;49.444;6.862;2022-12-11T06:48:45;13.93;;;5.90;;
60169;SDS011;46042;49.444;6.862;2022-12-11T06:51:14;11.90;;;6.13;;
60169;SDS011;46042;49.444;6.862;2022-12-11T06:53:43;14.20;;;7.30;;
60169;SDS011;46042;49.444;6.862;2022-12-11T06:56:12;9.93;;;5.60;;
60169;SDS011;46042;49.444;6.862;2022-12-11T06:58:40;13.80;;;6.33;;
60169;SDS011;46042;49.444;6.862;2022-12-11T07:03:54;11.93;;;5.73;;
60169;SDS011;46042;49.444;6.862;2022-12-11T07:06:22;12.13;;;6.97;;
60169;SDS011;46042;49.444;6.862;2022-12-11T07:08:50;14.07;;;7.87;;
60169;SDS011;46042;49.444;6.862;2022-12-11T07:11:17;12.17;;;6.73;;
60169;SDS011;46042;49.444;6.862;2022-12-11T07:13:45;11.60;;;6.40;;
60169;SDS011;46042;49.444;6.862;2022-12-11T07:16:13;11.10;;;5.73;;
60169;SDS011;46042;49.444;6.862;2022-12-11T07:18:42;11.93;;;6.67;;
60169;SDS011;46042;49.444;6.862;2022-12-11T07:21:12;9.73;;;5.50;;
60169;SDS011;46042;49.444;6.862;2022-12-11T07:23:39;12.33;;;6.10;;
60169;SDS011;46042;49.444;6.862;2022-12-11T07:26:07;13.83;;;6.47;;
60169;SDS011;46042;49.444;6.862;2022-12-11T07:28:36;16.20;;;7.07;;
60169;SDS011;46042;49.444;6.862;2022-12-11T07:31:13;12.67;;;5.90;;
60169;SDS011;46042;49.444;6.862;2022-12-11T07:33:42;10.97;;;5.67;;
60169;SDS011;46042;49.444;6.862;2022-12-11T07:36:10;14.23;;;5.20;;
60169;SDS011;46042;49.444;6.862;2022-12-11T07:38:37;8.67;;;4.97;;
60169;SDS011;46042;49.444;6.862;2022-12-11T07:41:06;11.27;;;5.30;;
60169;SDS011;46042;49.444;6.862;2022-12-11T07:43:34;11.33;;;5.33;;
60169;SDS011;46042;49.444;6.862;2022-12-11T07:46:02;10.53;;;5.73;;
60169;SDS011;46042;49.444;6.862;2022-12-11T07:48:30;11.23;;;4.63;;
60169;SDS011;46042;49.444;6.862;2022-12-11T07:53:58;10.03;;;4.90;;
60169;SDS011;46042;49.444;6.862;2022-12-11T07:56:27;9.67;;;5.23;;
60169;SDS011;46042;49.444;6.862;2022-12-11T07:58:55;9.43;;;5.07;;
60169;SDS011;46042;49.444;6.862;2022-12-11T08:01:24;14.73;;;5.07;;
60169;SDS011;46042;49.444;6.862;2022-12-11T08:03:53;10.43;;;4.57;;
60169;SDS011;46042;49.444;6.862;2022-12-11T08:06:24;11.17;;;5.50;;
60169;SDS011;46042;49.444;6.862;2022-12-11T08:08:55;8.63;;;4.60;;
60169;SDS011;46042;49.444;6.862;2022-12-11T08:11:23;13.93;;;5.43;;
60169;SDS011;46042;49.444;6.862;2022-12-11T08:13:50;10.30;;;4.87;;
60169;SDS011;46042;49.444;6.862;2022-12-11T08:16:17;9.83;;;4.77;;
60169;SDS011;46042;49.444;6.862;2022-12-11T08:18:44;15.87;;;6.57;;
60169;SDS011;46042;49.444;6.862;2022-12-11T08:21:23;9.27;;;4.97;;
60169;SDS011;46042;49.444;6.862;2022-12-11T08:23:51;15.47;;;6.53;;
60169;SDS011;46042;49.444;6.862;2022-12-11T08:26:23;13.27;;;5.77;;
60169;SDS011;46042;49.444;6.862;2022-12-11T08:28:52;12.40;;;6.90;;
60169;SDS011;46042;49.444;6.862;2022-12-11T08:31:19;13.53;;;6.40;;
60169;SDS011;46042;49.444;6.862;2022-12-11T08:33:46;13.27;;;6.43;;
60169;SDS011;46042;49.444;6.862;2022-12-11T08:36:15;11.27;;;6.10;;
60169;SDS011;46042;49.444;6.862;2022-12-11T08:38:44;15.07;;;7.97;;
60169;SDS011;46042;49.444;6.862;2022-12-11T08:41:13;16.43;;;7.37;;
60169;SDS011;46042;49.444;6.862;2022-12-11T08:43:41;11.23;;;7.37;;
60169;SDS011;46042;49.444;6.862;2022-12-11T08:46:09;18.13;;;7.83;;
60169;SDS011;46042;49.444;6.862;2022-12-11T08:48:37;15.40;;;7.83;;
60169;SDS011;46042;49.444;6.862;2022-12-11T08:51:06;24.60;;;9.33;;
60169;SDS011;46042;49.444;6.862;2022-12-11T08:53:36;19.20;;;9.52;;
60169;SDS011;46042;49.444;6.862;2022-12-11T08:56:05;28.80;;;11.33;;
60169;SDS011;46042;49.444;6.862;2022-12-11T08:58:33;21.97;;;10.27;;
60169;SDS011;46042;49.444;6.862;2022-12-11T09:01:05;17.77;;;8.67;;
60169;SDS011;46042;49.444;6.862;2022-12-11T09:03:36;16.47;;;7.73;;
60169;SDS011;46042;49.444;6.862;2022-12-11T09:06:06;22.13;;;8.50;;
60169;SDS011;46042;49.444;6.862;2022-12-11T09:08:36;22.83;;;11.37;;
60169;SDS011;46042;49.444;6.862;2022-12-11T09:11:04;20.03;;;9.03;;
60169;SDS011;46042;49.444;6.862;2022-12-11T09:13:32;22.47;;;9.10;;
60169;SDS011;46042;49.444;6.862;2022-12-11T09:15:59;17.47;;;8.57;;
60169;SDS011;46042;49.444;6.862;2022-12-11T09:18:26;19.73;;;8.83;;
60169;SDS011;46042;49.444;6.862;2022-12-11T09:21:03;15.23;;;8.47;;
60169;SDS011;46042;49.444;6.862;2022-12-11T09:23:31;21.00;;;8.57;;
60169;SDS011;46042;49.444;6.862;2022-12-11T09:25:58;20.83;;;9.40;;
60169;SDS011;46042;49.444;6.862;2022-12-11T09:28:24;17.53;;;8.57;;
60169;SDS011;46042;49.444;6.862;2022-12-11T09:30:51;19.13;;;9.17;;
60169;SDS011;46042;49.444;6.862;2022-12-11T09:33:18;19.93;;;9.20;;
60169;SDS011;46042;49.444;6.862;2022-12-11T09:35:44;21.10;;;8.53;;
60169;SDS011;46042;49.444;6.862;2022-12-11T09:38:11;20.30;;;9.87;;
60169;SDS011;46042;49.444;6.862;2022-12-11T09:40:38;16.77;;;8.97;;
60169;SDS011;46042;49.444;6.862;2022-12-11T09:43:14;17.23;;;7.97;;
60169;SDS011;46042;49.444;6.862;2022-12-11T09:45:52;17.53;;;8.37;;
60169;SDS011;46042;49.444;6.862;2022-12-11T09:48:21;15.43;;;7.40;;
60169;SDS011;46042;49.444;6.862;2022-12-11T09:50:52;15.38;;;7.80;;
60169;SDS011;46042;49.444;6.862;2022-12-11T09:53:30;18.60;;;9.03;;
60169;SDS011;46042;49.444;6.862;2022-12-11T10:02:27;23.77;;;8.40;;
60169;SDS011;46042;49.444;6.862;2022-12-11T10:07:31;14.27;;;8.17;;
60169;SDS011;46042;49.444;6.862;2022-12-11T10:13:04;12.10;;;7.20;;
60169;SDS011;46042;49.444;6.862;2022-12-11T10:15:44;16.83;;;7.63;;
60169;SDS011;46042;49.444;6.862;2022-12-11T10:18:22;18.63;;;7.07;;
60169;SDS011;46042;49.444;6.862;2022-12-11T10:20:53;13.68;;;7.38;;
60169;SDS011;46042;49.444;6.862;2022-12-11T10:26:22;17.10;;;7.70;;
60169;SDS011;46042;49.444;6.862;2022-12-11T10:28:49;14.87;;;7.80;;
60169;SDS011;46042;49.444;6.862;2022-12-11T10:31:22;15.73;;;7.60;;
60169;SDS011;46042;49.444;6.862;2022-12-11T10:34:01;15.80;;;7.20;;
60169;SDS011;46042;49.444;6.862;2022-12-11T10:36:39;12.30;;;6.43;;
60169;SDS011;46042;49.444;6.862;2022-12-11T10:39:11;12.07;;;6.70;;
60169;SDS011;46042;49.444;6.862;2022-12-11T10:41:41;14.50;;;6.77;;
60169;SDS011;46042;49.444;6.862;2022-12-11T10:49:35;8.73;;;4.93;;
60169;SDS011;46042;49.444;6.862;2022-12-11T10:52:10;9.17;;;4.87;;
60169;SDS011;46042;49.444;6.862;2022-12-11T10:54:43;12.27;;;6.40;;
60169;SDS011;46042;49.444;6.862;2022-12-11T10:57:14;9.95;;;5.45;;
60169;SDS011;46042;49.444;6.862;2022-12-11T10:59:48;12.63;;;5.80;;
60169;SDS011;46042;49.444;6.862;2022-12-11T11:04:51;11.70;;;5.77;;
60169;SDS011;46042;49.444;6.862;2022-12-11T11:07:20;9.13;;;5.93;;
60169;SDS011;46042;49.444;6.862;2022-12-11T11:12:38;13.90;;;5.80;;
60169;SDS011;46042;49.444;6.862;2022-12-11T11:17:44;11.43;;;6.47;;
60169;SDS011;46042;49.444;6.862;2022-12-11T11:20:21;7.73;;;4.77;;
60169;SDS011;46042;49.444;6.862;2022-12-11T11:25:21;9.97;;;5.33;;
60169;SDS011;46042;49.444;6.862;2022-12-11T11:27:59;10.63;;;5.10;;
60169;SDS011;46042;49.444;6.862;2022-12-11T11:30:35;10.70;;;4.40;;
60169;SDS011;46042;49.444;6.862;2022-12-11T11:33:12;10.80;;;5.87;;
60169;SDS011;46042;49.444;6.862;2022-12-11T11:38:28;10.47;;;4.63;;
60169;SDS011;46042;49.444;6.862;2022-12-11T11:41:11;11.73;;;5.23;;
60169;SDS011;46042;49.444;6.862;2022-12-11T11:43:45;16.83;;;5.40;;
60169;SDS011;46042;49.444;6.862;2022-12-11T11:46:21;8.87;;;4.77;;
60169;SDS011;46042;49.444;6.862;2022-12-11T11:51:59;10.10;;;5.17;;
60169;SDS011;46042;49.444;6.862;2022-12-11T11:54:34;12.27;;;5.30;;
60169;SDS011;46042;49.444;6.862;2022-12-11T11:57:48;12.17;;;5.43;;
60169;SDS011;46042;49.444;6.862;2022-12-11T12:00:03;15.53;;;5.93;;
60169;SDS011;46042;49.444;6.862;2022-12-11T12:02:36;12.40;;;5.70;;
60169;SDS011;46042;49.444;6.862;2022-12-11T12:05:03;13.97;;;5.67;;
60169;SDS011;46042;49.444;6.862;2022-12-11T12:10:12;9.70;;;5.57;;
60169;SDS011;46042;49.444;6.862;2022-12-11T12:15:26;9.03;;;4.83;;
60169;SDS011;46042;49.444;6.862;2022-12-11T12:18:03;10.33;;;4.70;;
60169;SDS011;46042;49.444;6.862;2022-12-11T12:20:58;11.63;;;5.40;;
60169;SDS011;46042;49.444;6.862;2022-12-11T12:26:28;11.50;;;5.27;;
60169;SDS011;46042;49.444;6.862;2022-12-11T12:34:45;19.00;;;7.30;;
60169;SDS011;46042;49.444;6.862;2022-12-11T12:40:24;12.95;;;6.38;;
60169;SDS011;46042;49.444;6.862;2022-12-11T12:43:18;14.33;;;6.03;;
60169;SDS011;46042;49.444;6.862;2022-12-11T12:46:08;14.23;;;6.23;;
60169;SDS011;46042;49.444;6.862;2022-12-11T12:48:35;19.42;;;6.43;;
60169;SDS011;46042;49.444;6.862;2022-12-11T12:51:02;15.47;;;6.73;;
60169;SDS011;46042;49.444;6.862;2022-12-11T12:53:30;15.20;;;6.60;;
60169;SDS011;46042;49.444;6.862;2022-12-11T12:55:59;12.50;;;6.43;;
60169;SDS011;46042;49.444;6.862;2022-12-11T12:58:49;14.80;;;6.10;;
60169;SDS011;46042;49.444;6.862;2022-12-11T13:01:24;14.83;;;6.17;;
60169;SDS011;46042;49.444;6.862;2022-12-11T13:03:57;16.20;;;6.97;;
60169;SDS011;46042;49.444;6.862;2022-12-11T13:06:43;17.00;;;7.57;;
60169;SDS011;46042;49.444;6.862;2022-12-11T13:09:15;12.83;;;6.43;;
60169;SDS011;46042;49.444;6.862;2022-12-11T13:11:44;13.83;;;5.83;;
60169;SDS011;46042;49.444;6.862;2022-12-11T13:16:40;15.13;;;8.13;;
60169;SDS011;46042;49.444;6.862;2022-12-11T13:21:57;10.10;;;5.20;;
60169;SDS011;46042;49.444;6.862;2022-12-11T13:24:29;14.97;;;6.23;;
60169;SDS011;46042;49.444;6.862;2022-12-11T13:27:07;26.20;;;12.03;;
60169;SDS011;46042;49.444;6.862;2022-12-11T13:29:36;16.30;;;6.37;;
60169;SDS011;46042;49.444;6.862;2022-12-11T13:34:40;20.50;;;10.00;;
60169;SDS011;46042;49.444;6.862;2022-12-11T13:40:02;10.55;;;5.65;;
60169;SDS011;46042;49.444;6.862;2022-12-11T13:45:01;10.53;;;5.50;;
60169;SDS011;46042;49.444;6.862;2022-12-11T13:47:29;12.47;;;6.40;;
60169;SDS011;46042;49.444;6.862;2022-12-11T13:50:14;16.17;;;6.93;;
60169;SDS011;46042;49.444;6.862;2022-12-11T13:52:52;15.77;;;7.97;;
60169;SDS011;46042;49.444;6.862;2022-12-11T13:55:21;14.13;;;6.27;;
60169;SDS011;46042;49.444;6.862;2022-12-11T13:57:50;14.63;;;7.10;;
60169;SDS011;46042;49.444;6.862;2022-12-11T14:03:04;16.13;;;8.17;;
60169;SDS011;46042;49.444;6.862;2022-12-11T14:05:34;15.25;;;7.65;;
60169;SDS011;46042;49.444;6.862;2022-12-11T14:08:03;13.07;;;6.37;;
60169;SDS011;46042;49.444;6.862;2022-12-11T14:10:34;16.60;;;7.70;;
60169;SDS011;46042;49.444;6.862;2022-12-11T14:13:03;18.33;;;8.57;;
60169;SDS011;46042;49.444;6.862;2022-12-11T14:15:33;16.38;;;8.10;;
60169;SDS011;46042;49.444;6.862;2022-12-11T14:18:01;14.17;;;7.37;;
60169;SDS011;46042;49.444;6.862;2022-12-11T14:20:31;17.53;;;8.47;;
60169;SDS011;46042;49.444;6.862;2022-12-11T14:23:06;17.27;;;9.30;;
60169;SDS011;46042;49.444;6.862;2022-12-11T14:25:59;21.10;;;10.43;;
60169;SDS011;46042;49.444;6.862;2022-12-11T14:28:27;19.50;;;9.73;;
60169;SDS011;46042;49.444;6.862;2022-12-11T14:30:56;24.03;;;10.20;;
60169;SDS011;46042;49.444;6.862;2022-12-11T14:33:26;16.40;;;8.83;;
60169;SDS011;46042;49.444;6.862;2022-12-11T14:35:57;21.30;;;10.13;;
60169;SDS011;46042;49.444;6.862;2022-12-11T14:38:26;17.37;;;9.90;;
60169;SDS011;46042;49.444;6.862;2022-12-11T14:40:59;17.40;;;9.03;;
60169;SDS011;46042;49.444;6.862;2022-12-11T14:43:32;17.33;;;8.43;;
60169;SDS011;46042;49.444;6.862;2022-12-11T14:46:06;16.03;;;8.93;;
60169;SDS011;46042;49.444;6.862;2022-12-11T14:48:45;23.13;;;8.87;;
60169;SDS011;46042;49.444;6.862;2022-12-11T14:51:22;25.47;;;9.27;;
60169;SDS011;46042;49.444;6.862;2022-12-11T14:56:22;17.50;;;9.77;;
60169;SDS011;46042;49.444;6.862;2022-12-11T14:58:55;23.67;;;8.40;;
60169;SDS011;46042;49.444;6.862;2022-12-11T15:01:25;22.17;;;9.40;;
60169;SDS011;46042;49.444;6.862;2022-12-11T15:04:01;19.25;;;8.82;;
60169;SDS011;46042;49.444;6.862;2022-12-11T15:06:45;16.93;;;8.40;;
60169;SDS011;46042;49.444;6.862;2022-12-11T15:09:20;15.53;;;8.10;;
60169;SDS011;46042;49.444;6.862;2022-12-11T15:11:47;19.50;;;7.83;;
60169;SDS011;46042;49.444;6.862;2022-12-11T15:14:17;22.03;;;9.30;;
60169;SDS011;46042;49.444;6.862;2022-12-11T15:16:46;21.00;;;9.90;;
60169;SDS011;46042;49.444;6.862;2022-12-11T15:19:25;20.80;;;8.97;;
60169;SDS011;46042;49.444;6.862;2022-12-11T15:22:02;18.43;;;9.93;;
60169;SDS011;46042;49.444;6.862;2022-12-11T15:24:35;21.93;;;9.77;;
60169;SDS011;46042;49.444;6.862;2022-12-11T15:27:06;21.90;;;10.90;;
60169;SDS011;46042;49.444;6.862;2022-12-11T15:29:54;17.80;;;8.17;;
60169;SDS011;46042;49.444;6.862;2022-12-11T15:32:22;15.50;;;7.47;;
60169;SDS011;46042;49.444;6.862;2022-12-11T15:34:58;29.53;;;12.53;;
60169;SDS011;46042;49.444;6.862;2022-12-11T15:40:03;17.97;;;7.70;;
60169;SDS011;46042;49.444;6.862;2022-12-11T15:42:34;14.60;;;7.30;;
60169;SDS011;46042;49.444;6.862;2022-12-11T15:45:05;12.40;;;6.80;;
60169;SDS011;46042;49.444;6.862;2022-12-11T15:47:34;12.53;;;7.37;;
60169;SDS011;46042;49.444;6.862;2022-12-11T15:52:37;13.10;;;7.27;;
60169;SDS011;46042;49.444;6.862;2022-12-11T15:55:04;11.73;;;6.40;;
60169;SDS011;46042;49.444;6.862;2022-12-11T15:57:31;16.83;;;7.57;;
60169;SDS011;46042;49.444;6.862;2022-12-11T15:59:57;10.67;;;5.93;;
60169;SDS011;46042;49.444;6.862;2022-12-11T16:02:24;12.53;;;6.50;;
60169;SDS011;46042;49.444;6.862;2022-12-11T16:04:53;13.73;;;6.23;;
60169;SDS011;46042;49.444;6.862;2022-12-11T16:07:20;12.50;;;6.53;;
60169;SDS011;46042;49.444;6.862;2022-12-11T16:09:50;12.87;;;6.47;;
60169;SDS011;46042;49.444;6.862;2022-12-11T16:12:17;14.93;;;6.97;;
60169;SDS011;46042;49.444;6.862;2022-12-11T16:14:45;11.23;;;6.20;;
60169;SDS011;46042;49.444;6.862;2022-12-11T16:17:12;13.60;;;6.60;;
60169;SDS011;46042;49.444;6.862;2022-12-11T16:19:40;13.37;;;6.07;;
60169;SDS011;46042;49.444;6.862;2022-12-11T16:22:08;13.90;;;7.10;;
60169;SDS011;46042;49.444;6.862;2022-12-11T16:24:36;13.50;;;7.53;;
60169;SDS011;46042;49.444;6.862;2022-12-11T16:27:03;19.03;;;8.83;;
60169;SDS011;46042;49.444;6.862;2022-12-11T16:29:34;13.93;;;7.13;;
60169;SDS011;46042;49.444;6.862;2022-12-11T16:32:02;14.27;;;7.28;;
60169;SDS011;46042;49.444;6.862;2022-12-11T16:34:29;14.10;;;6.63;;